Time;durP1;ratioP1;P1;durP2;ratioP2;P2;SDS_P1;SDS_P2;PMS_P1;PMS_P2;Temp;Humidity;BMP_temperature;BMP_pressure;BME280_temperature;BME280_humidity;BME280_pressure;Samples;Min_cycle;Max_cycle;Signal;HPM_P1;HPM_P2
2021/01/19 00:02:12;;;;;;;10.50;6.60;;;;;;;;;;4900330;29;20480;-24
2021/01/19 00:04:37;;;;;;;14.70;7.22;;;;;;;;;;4883359;29;20032;-23
2021/01/19 00:07:03;;;;;;;11.77;6.53;;;;;;;;;;4900469;29;20032;-24
2021/01/19 00:09:28;;;;;;;10.25;7.03;;;;;;;;;;4899984;29;20465;-23
2021/01/19 00:11:54;;;;;;;11.77;6.43;;;;;;;;;;4900128;29;20052;-23
2021/01/19 00:14:19;;;;;;;11.10;5.78;;;;;;;;;;4900068;29;20484;-23
2021/01/19 00:16:44;;;;;;;13.38;6.30;;;;;;;;;;4900033;29;20029;-23
2021/01/19 00:19:10;;;;;;;12.95;7.03;;;;;;;;;;4898716;29;20484;-24
2021/01/19 00:21:35;;;;;;;12.82;7.47;;;;;;;;;;4898578;29;20029;-24
2021/01/19 00:24:01;;;;;;;14.60;7.72;;;;;;;;;;4883106;29;20116;-23
2021/01/19 00:26:26;;;;;;;16.05;7.82;;;;;;;;;;4899884;29;20040;-24
2021/01/19 00:28:52;;;;;;;12.85;6.88;;;;;;;;;;4883278;29;20064;-24
2021/01/19 00:31:17;;;;;;;12.32;6.78;;;;;;;;;;4899685;29;20040;-23
2021/01/19 00:33:42;;;;;;;10.80;6.82;;;;;;;;;;4899542;29;20483;-24
2021/01/19 00:36:08;;;;;;;13.27;7.25;;;;;;;;;;4899779;29;20047;-24
2021/01/19 00:38:33;;;;;;;9.90;5.53;;;;;;;;;;4899453;29;20036;-23
2021/01/19 00:40:59;;;;;;;11.80;6.32;;;;;;;;;;4899282;29;20029;-24
2021/01/19 00:43:24;;;;;;;10.30;6.38;;;;;;;;;;4899545;29;20062;-23
2021/01/19 00:45:49;;;;;;;13.25;6.82;;;;;;;;;;4882825;29;20028;-23
2021/01/19 00:48:15;;;;;;;12.75;6.72;;;;;;;;;;4899431;29;20033;-24
2021/01/19 00:50:40;;;;;;;12.05;6.82;;;;;;;;;;4898138;29;20033;-24
2021/01/19 00:53:06;;;;;;;13.35;7.32;;;;;;;;;;4899408;29;20083;-22
2021/01/19 00:55:31;;;;;;;12.88;7.82;;;;;;;;;;4899553;29;20027;-23
2021/01/19 00:57:57;;;;;;;16.60;7.35;;;;;;;;;;4882463;29;20040;-23
2021/01/19 01:00:26;;;;;;;13.73;7.68;;;;;;;;;;4899238;29;20024;-23
2021/01/19 01:02:52;;;;;;;14.10;6.75;;;;;;;;;;4899334;29;20379;-23
2021/01/19 01:05:17;;;;;;;15.38;7.45;;;;;;;;;;4899301;29;20088;-23
2021/01/19 01:07:43;;;;;;;11.50;6.57;;;;;;;;;;4899044;29;20041;-26
2021/01/19 01:10:09;;;;;;;12.13;6.38;;;;;;;;;;4899096;29;20063;-26
2021/01/19 01:12:35;;;;;;;13.90;6.65;;;;;;;;;;4898944;29;20032;-23
2021/01/19 01:15:00;;;;;;;19.05;9.80;;;;;;;;;;4899335;29;20044;-23
2021/01/19 01:17:26;;;;;;;12.27;6.88;;;;;;;;;;4898877;29;20136;-23
2021/01/19 01:19:51;;;;;;;12.52;6.35;;;;;;;;;;4898991;29;20036;-23
2021/01/19 01:22:17;;;;;;;11.40;7.13;;;;;;;;;;4898873;29;20024;-23
2021/01/19 01:24:42;;;;;;;9.77;6.40;;;;;;;;;;4898947;29;20111;-23
2021/01/19 01:27:08;;;;;;;9.52;6.70;;;;;;;;;;4898812;29;20490;-23
2021/01/19 01:29:33;;;;;;;10.32;6.60;;;;;;;;;;4898535;29;20027;-23
2021/01/19 01:31:59;;;;;;;11.35;7.13;;;;;;;;;;4898915;29;20036;-23
2021/01/19 01:34:24;;;;;;;12.43;6.25;;;;;;;;;;4881534;29;20411;-23
2021/01/19 01:36:50;;;;;;;10.32;7.20;;;;;;;;;;4898706;29;20040;-23
2021/01/19 01:39:15;;;;;;;12.95;8.00;;;;;;;;;;4898791;29;20048;-23
2021/01/19 01:41:40;;;;;;;16.88;9.98;;;;;;;;;;4898484;29;20068;-23
2021/01/19 01:44:06;;;;;;;18.77;9.70;;;;;;;;;;4898501;29;20051;-24
2021/01/19 01:46:34;;;;;;;13.45;8.75;;;;;;;;;;4881521;29;20037;-24
2021/01/19 01:49:00;;;;;;;14.73;8.63;;;;;;;;;;4881636;29;20484;-24
2021/01/19 01:51:26;;;;;;;14.23;8.05;;;;;;;;;;4897299;29;20064;-23
2021/01/19 01:53:52;;;;;;;11.75;6.70;;;;;;;;;;4898227;29;20040;-24
2021/01/19 01:56:18;;;;;;;13.50;7.00;;;;;;;;;;4881453;29;20184;-23
2021/01/19 01:58:44;;;;;;;11.40;6.72;;;;;;;;;;4898185;29;20455;-23
2021/01/19 02:01:10;;;;;;;16.08;7.65;;;;;;;;;;4881338;29;20060;-23
2021/01/19 02:03:35;;;;;;;15.73;8.27;;;;;;;;;;4881263;29;20092;-23
2021/01/19 02:06:01;;;;;;;11.52;7.20;;;;;;;;;;4865810;29;20127;-23
2021/01/19 02:08:44;;;;;;;11.32;7.35;;;;;;;;;;4897970;29;20041;-24
2021/01/19 02:11:10;;;;;;;;;;;;;;;;;;4898381;29;20028;-25
2021/01/19 02:13:58;;;;;;;15.18;8.55;;;;;;;;;;4898017;29;19955;-24
2021/01/19 02:16:33;;;;;;;11.63;7.18;;;;;;;;;;4879346;29;20052;-23
2021/01/19 02:19:19;;;;;;;11.30;7.55;;;;;;;;;;4897774;29;20044;-23
2021/01/19 02:21:48;;;;;;;11.63;6.47;;;;;;;;;;4897331;29;20436;-25
2021/01/19 02:24:26;;;;;;;12.18;7.38;;;;;;;;;;4896520;29;20477;-24
2021/01/19 02:26:58;;;;;;;13.05;7.38;;;;;;;;;;4898046;29;20032;-24
2021/01/19 02:29:23;;;;;;;11.75;7.43;;;;;;;;;;4897537;29;20035;-24
2021/01/19 02:31:49;;;;;;;14.25;7.03;;;;;;;;;;4897706;29;20033;-24
2021/01/19 02:34:14;;;;;;;10.45;5.93;;;;;;;;;;4897398;29;20041;-24
2021/01/19 02:36:58;;;;;;;9.45;6.53;;;;;;;;;;4897136;29;20033;-24
2021/01/19 02:39:42;;;;;;;14.63;7.95;;;;;;;;;;4880622;29;20037;-24
2021/01/19 02:42:09;;;;;;;11.38;6.97;;;;;;;;;;4897522;29;20499;-23
2021/01/19 02:44:37;;;;;;;11.30;6.65;;;;;;;;;;4897435;29;20482;-24
2021/01/19 02:47:03;;;;;;;12.52;7.00;;;;;;;;;;4897492;29;20051;-24
2021/01/19 02:49:29;;;;;;;12.02;6.88;;;;;;;;;;4897157;29;20611;-24
2021/01/19 02:51:54;;;;;;;11.70;6.97;;;;;;;;;;4897426;29;20115;-24
2021/01/19 02:54:21;;;;;;;14.82;8.65;;;;;;;;;;4897328;29;20041;-23
2021/01/19 02:56:46;;;;;;;9.57;6.38;;;;;;;;;;4880354;29;20493;-23
2021/01/19 02:59:20;;;;;;;14.32;7.20;;;;;;;;;;4897541;29;20036;-23
2021/01/19 03:01:49;;;;;;;14.40;6.75;;;;;;;;;;4880369;29;20024;-22
2021/01/19 03:04:15;;;;;;;10.10;6.45;;;;;;;;;;4896902;29;20122;-23
2021/01/19 03:06:41;;;;;;;13.65;6.15;;;;;;;;;;4880683;29;20397;-23
2021/01/19 03:09:07;;;;;;;13.52;8.10;;;;;;;;;;4897159;29;20111;-23
2021/01/19 03:11:35;;;;;;;13.55;7.53;;;;;;;;;;4897044;29;20108;-24
2021/01/19 03:14:01;;;;;;;13.27;6.82;;;;;;;;;;4897139;29;20048;-24
2021/01/19 03:16:26;;;;;;;12.75;7.55;;;;;;;;;;4895845;29;20043;-24
2021/01/19 03:18:52;;;;;;;14.82;7.78;;;;;;;;;;4880237;29;20059;-24
2021/01/19 03:21:18;;;;;;;11.77;7.68;;;;;;;;;;4897160;29;20451;-23
2021/01/19 03:23:43;;;;;;;13.95;7.93;;;;;;;;;;4896948;29;20136;-24
2021/01/19 03:26:09;;;;;;;10.43;7.15;;;;;;;;;;4897105;29;20028;-23
2021/01/19 03:28:34;;;;;;;14.57;7.78;;;;;;;;;;4880199;29;20543;-23
2021/01/19 03:31:01;;;;;;;16.20;7.53;;;;;;;;;;4896934;29;20518;-24
2021/01/19 03:33:26;;;;;;;12.15;7.30;;;;;;;;;;4896821;29;20040;-22
2021/01/19 03:35:52;;;;;;;10.63;6.38;;;;;;;;;;4896921;29;20029;-23
2021/01/19 03:38:17;;;;;;;14.00;6.55;;;;;;;;;;4896974;29;20029;-23
2021/01/19 03:40:43;;;;;;;12.23;6.78;;;;;;;;;;4896890;29;20032;-23
2021/01/19 03:43:08;;;;;;;10.13;6.03;;;;;;;;;;4897002;29;20119;-24
2021/01/19 03:45:34;;;;;;;10.55;6.75;;;;;;;;;;4864460;29;20428;-24
2021/01/19 03:47:59;;;;;;;13.25;7.18;;;;;;;;;;4896905;29;20041;-24
2021/01/19 03:50:25;;;;;;;16.27;7.50;;;;;;;;;;4896808;29;20036;-24
2021/01/19 03:52:51;;;;;;;12.00;7.28;;;;;;;;;;4879199;29;20039;-24
2021/01/19 03:55:16;;;;;;;11.57;6.68;;;;;;;;;;4879784;29;20384;-23
2021/01/19 03:57:42;;;;;;;12.45;7.20;;;;;;;;;;4896708;29;20085;-23
2021/01/19 04:00:09;;;;;;;12.43;7.93;;;;;;;;;;4896611;29;20068;-26
2021/01/19 04:02:38;;;;;;;10.88;6.90;;;;;;;;;;4896896;29;20111;-23
2021/01/19 04:05:04;;;;;;;9.95;6.80;;;;;;;;;;4895494;29;20480;-23
2021/01/19 04:07:29;;;;;;;12.02;6.10;;;;;;;;;;4896623;29;20103;-23
2021/01/19 04:09:54;;;;;;;16.73;7.03;;;;;;;;;;4896768;29;20028;-23
2021/01/19 04:12:20;;;;;;;11.00;6.57;;;;;;;;;;4896555;29;20436;-23
2021/01/19 04:14:45;;;;;;;11.65;6.22;;;;;;;;;;4897217;29;20045;-22
2021/01/19 04:17:11;;;;;;;13.25;6.45;;;;;;;;;;4900165;29;20096;-23
2021/01/19 04:19:36;;;;;;;14.23;5.93;;;;;;;;;;4883366;29;20437;-25
2021/01/19 04:22:02;;;;;;;12.55;5.88;;;;;;;;;;4899959;29;20033;-24
2021/01/19 04:24:27;;;;;;;8.20;5.03;;;;;;;;;;4883322;29;20778;-23
2021/01/19 04:26:52;;;;;;;10.07;5.70;;;;;;;;;;4883136;29;20088;-24
2021/01/19 04:29:18;;;;;;;12.02;6.38;;;;;;;;;;4899797;29;20040;-22
2021/01/19 04:31:43;;;;;;;11.27;5.47;;;;;;;;;;4899628;29;20075;-23
2021/01/19 04:34:09;;;;;;;11.20;6.57;;;;;;;;;;4900074;29;20048;-24
2021/01/19 04:36:34;;;;;;;12.38;6.20;;;;;;;;;;4899544;29;20025;-23
2021/01/19 04:39:00;;;;;;;11.57;5.57;;;;;;;;;;4900007;29;20037;-23
2021/01/19 04:41:26;;;;;;;8.70;4.78;;;;;;;;;;4899625;29;20040;-23
2021/01/19 04:43:52;;;;;;;10.35;6.00;;;;;;;;;;4898285;29;20039;-23
2021/01/19 04:46:18;;;;;;;11.98;6.15;;;;;;;;;;4899836;29;20488;-24
2021/01/19 04:48:45;;;;;;;8.80;5.60;;;;;;;;;;4899312;29;20116;-24
2021/01/19 04:51:17;;;;;;;10.05;5.13;;;;;;;;;;4899694;29;20121;-23
2021/01/19 04:53:46;;;;;;;10.05;5.63;;;;;;;;;;4899230;29;20472;-23
2021/01/19 04:56:17;;;;;;;8.88;5.75;;;;;;;;;;4882693;29;20072;-23
2021/01/19 04:58:43;;;;;;;14.13;5.65;;;;;;;;;;4899443;29;20429;-24
2021/01/19 05:01:11;;;;;;;11.90;6.30;;;;;;;;;;4882358;29;20028;-24
2021/01/19 05:03:54;;;;;;;13.20;6.95;;;;;;;;;;4882263;29;20036;-24
2021/01/19 05:06:37;;;;;;;11.85;6.80;;;;;;;;;;4899367;29;20033;-24
2021/01/19 05:09:09;;;;;;;13.75;7.22;;;;;;;;;;4899202;29;20024;-24
2021/01/19 05:12:04;;;;;;;9.27;6.32;;;;;;;;;;4882174;29;20041;-24
2021/01/19 05:14:38;;;;;;;12.27;6.90;;;;;;;;;;4862585;29;20131;-23
2021/01/19 05:17:04;;;;;;;10.10;6.38;;;;;;;;;;4882316;29;20103;-23
2021/01/19 05:19:30;;;;;;;14.45;6.43;;;;;;;;;;4898909;29;20491;-23
2021/01/19 05:21:55;;;;;;;10.77;6.00;;;;;;;;;;4898924;29;20091;-23
2021/01/19 05:24:21;;;;;;;12.52;5.63;;;;;;;;;;4897591;29;20033;-30
2021/01/19 05:26:47;;;;;;;11.15;5.82;;;;;;;;;;4898518;29;20037;-23
2021/01/19 05:29:12;;;;;;;9.55;6.18;;;;;;;;;;4898847;29;20603;-24
2021/01/19 05:31:37;;;;;;;9.70;6.03;;;;;;;;;;4898537;29;20490;-23
2021/01/19 05:34:12;;;;;;;12.63;6.50;;;;;;;;;;4898662;29;20100;-23
2021/01/19 05:36:45;;;;;;;9.45;5.70;;;;;;;;;;4881846;29;20365;-23
2021/01/19 05:39:15;;;;;;;11.20;6.18;;;;;;;;;;4898784;29;20095;-24
2021/01/19 05:41:41;;;;;;;11.25;6.75;;;;;;;;;;4898459;29;20040;-23
2021/01/19 05:44:10;;;;;;;10.52;5.97;;;;;;;;;;4898535;29;20077;-23
2021/01/19 05:46:40;;;;;;;10.10;6.30;;;;;;;;;;4898278;29;20075;-23
2021/01/19 05:49:05;;;;;;;9.73;6.28;;;;;;;;;;4881494;29;20530;-24
2021/01/19 05:51:31;;;;;;;10.30;6.10;;;;;;;;;;4898360;29;20115;-23
2021/01/19 05:53:57;;;;;;;11.18;6.65;;;;;;;;;;4881409;29;20480;-23
2021/01/19 05:56:23;;;;;;;10.18;5.57;;;;;;;;;;4898297;29;20068;-23
2021/01/19 05:58:49;;;;;;;10.60;5.78;;;;;;;;;;4898197;29;20458;-24
2021/01/19 06:01:28;;;;;;;9.95;6.50;;;;;;;;;;4881352;29;20084;-23
2021/01/19 06:03:55;;;;;;;8.65;5.07;;;;;;;;;;4898102;29;20115;-24
2021/01/19 06:06:22;;;;;;;9.20;6.20;;;;;;;;;;4898222;29;20438;-23
2021/01/19 06:08:48;;;;;;;9.45;6.35;;;;;;;;;;4897916;29;20029;-24
2021/01/19 06:11:13;;;;;;;11.23;5.68;;;;;;;;;;4881608;29;20472;-24
2021/01/19 06:13:39;;;;;;;15.15;7.07;;;;;;;;;;4897794;29;20040;-23
2021/01/19 06:16:08;;;;;;;14.18;7.68;;;;;;;;;;4897959;29;20036;-24
2021/01/19 06:18:36;;;;;;;11.38;6.78;;;;;;;;;;4897858;29;20032;-23
2021/01/19 06:21:02;;;;;;;10.30;6.25;;;;;;;;;;4881151;29;20033;-23
2021/01/19 06:23:27;;;;;;;11.55;7.07;;;;;;;;;;4897692;29;20416;-23
2021/01/19 06:26:03;;;;;;;13.52;7.75;;;;;;;;;;4897714;29;20051;-23
2021/01/19 06:28:28;;;;;;;14.82;6.82;;;;;;;;;;4897724;29;20032;-23
2021/01/19 06:30:53;;;;;;;21.38;9.27;;;;;;;;;;4897560;29;20058;-23
2021/01/19 06:33:25;;;;;;;11.93;7.30;;;;;;;;;;4897613;29;20052;-23
2021/01/19 06:35:54;;;;;;;12.15;7.25;;;;;;;;;;4897787;29;20036;-23
2021/01/19 06:38:20;;;;;;;9.77;6.28;;;;;;;;;;4880102;29;20088;-24
2021/01/19 06:40:47;;;;;;;28.92;12.77;;;;;;;;;;4880726;29;20025;-24
2021/01/19 06:43:13;;;;;;;37.60;15.65;;;;;;;;;;4897102;29;20120;-23
2021/01/19 06:45:41;;;;;;;16.42;7.25;;;;;;;;;;4897422;29;20031;-23
2021/01/19 06:48:06;;;;;;;17.30;9.27;;;;;;;;;;4897414;29;20033;-24
2021/01/19 06:50:37;;;;;;;11.45;7.35;;;;;;;;;;4897328;29;20029;-22
2021/01/19 06:53:03;;;;;;;13.25;7.22;;;;;;;;;;4897358;29;20040;-23
2021/01/19 06:55:39;;;;;;;13.93;6.90;;;;;;;;;;4896128;29;20417;-24
2021/01/19 06:58:16;;;;;;;12.35;6.95;;;;;;;;;;4897501;29;20420;-23
2021/01/19 07:00:42;;;;;;;11.45;7.35;;;;;;;;;;4897167;29;20052;-22
2021/01/19 07:03:20;;;;;;;10.60;6.15;;;;;;;;;;4897354;29;20060;-23
2021/01/19 07:05:49;;;;;;;9.43;6.20;;;;;;;;;;4897524;29;20028;-23
2021/01/19 07:08:20;;;;;;;9.43;5.95;;;;;;;;;;4897331;29;20054;-23
2021/01/19 07:11:04;;;;;;;12.98;8.32;;;;;;;;;;4897156;29;20088;-27
2021/01/19 07:13:36;;;;;;;9.65;6.20;;;;;;;;;;4896982;29;20381;-23
2021/01/19 07:16:02;;;;;;;8.95;5.00;;;;;;;;;;4880306;29;20543;-23
2021/01/19 07:18:48;;;;;;;11.43;6.13;;;;;;;;;;4880358;29;20048;-23
2021/01/19 07:21:15;;;;;;;13.35;6.18;;;;;;;;;;4897174;29;20040;-21
2021/01/19 07:23:46;;;;;;;8.63;6.03;;;;;;;;;;4897049;29;20029;-22
2021/01/19 07:26:22;;;;;;;12.05;6.63;;;;;;;;;;4897245;29;20043;-22
2021/01/19 07:28:48;;;;;;;16.20;7.85;;;;;;;;;;4880225;29;20080;-22
2021/01/19 07:31:17;;;;;;;9.18;4.57;;;;;;;;;;4896939;29;20051;-23
2021/01/19 07:33:44;;;;;;;11.43;6.15;;;;;;;;;;4896858;29;20041;-23
2021/01/19 07:36:16;;;;;;;9.52;6.05;;;;;;;;;;4897332;29;20036;-23
2021/01/19 07:38:41;;;;;;;11.35;5.82;;;;;;;;;;4897165;29;20396;-23
2021/01/19 07:41:07;;;;;;;10.40;5.75;;;;;;;;;;4880405;29;20040;-22
2021/01/19 07:43:34;;;;;;;7.90;5.18;;;;;;;;;;4897082;29;20103;-23
2021/01/19 07:45:59;;;;;;;8.18;4.90;;;;;;;;;;4896993;29;20033;-23
2021/01/19 07:48:35;;;;;;;14.40;5.65;;;;;;;;;;4895719;29;20080;-22
2021/01/19 07:51:18;;;;;;;8.80;5.70;;;;;;;;;;4900577;29;20037;-24
2021/01/19 07:53:51;;;;;;;9.55;4.95;;;;;;;;;;4900402;29;20040;-24
2021/01/19 07:56:23;;;;;;;7.10;4.90;;;;;;;;;;4900693;29;20033;-24
2021/01/19 07:58:48;;;;;;;9.65;5.38;;;;;;;;;;4883797;29;20411;-23
2021/01/19 08:01:22;;;;;;;9.43;5.95;;;;;;;;;;4900394;29;20029;-24
2021/01/19 08:03:47;;;;;;;10.15;6.45;;;;;;;;;;4900197;29;20025;-24
2021/01/19 08:06:13;;;;;;;12.25;7.38;;;;;;;;;;4900442;29;20365;-24
2021/01/19 08:08:38;;;;;;;11.05;6.38;;;;;;;;;;4900152;29;20596;-23
2021/01/19 08:11:04;;;;;;;10.23;6.25;;;;;;;;;;4883318;29;20470;-24
2021/01/19 08:13:29;;;;;;;13.05;7.00;;;;;;;;;;4882955;29;20161;-23
2021/01/19 08:16:05;;;;;;;8.55;6.15;;;;;;;;;;4899889;29;20039;-23
2021/01/19 08:18:40;;;;;;;10.88;7.18;;;;;;;;;;4883153;29;20044;-23
2021/01/19 08:21:07;;;;;;;11.60;7.00;;;;;;;;;;4900018;29;20033;-23
2021/01/19 08:23:33;;;;;;;8.68;4.90;;;;;;;;;;4883141;29;20028;-24
2021/01/19 08:26:08;;;;;;;12.98;7.10;;;;;;;;;;4899932;29;20043;-23
2021/01/19 08:28:36;;;;;;;8.38;5.50;;;;;;;;;;4899801;29;20029;-24
2021/01/19 08:31:02;;;;;;;7.82;4.30;;;;;;;;;;4882879;29;20511;-24
2021/01/19 08:33:27;;;;;;;7.22;4.30;;;;;;;;;;4899972;29;20049;-23
2021/01/19 08:35:58;;;;;;;7.35;4.57;;;;;;;;;;4898461;29;20096;-24
2021/01/19 08:38:23;;;;;;;8.77;4.30;;;;;;;;;;4899586;29;20084;-23
2021/01/19 08:40:49;;;;;;;6.35;4.32;;;;;;;;;;4899561;29;20032;-24
2021/01/19 08:43:15;;;;;;;12.70;6.53;;;;;;;;;;4882876;29;20024;-23
2021/01/19 08:45:40;;;;;;;11.93;6.93;;;;;;;;;;4899472;29;20036;-24
2021/01/19 08:48:07;;;;;;;11.10;6.32;;;;;;;;;;4882846;29;20116;-24
2021/01/19 08:50:37;;;;;;;12.93;6.65;;;;;;;;;;4899402;29;20029;-23
2021/01/19 08:53:20;;;;;;;13.13;7.22;;;;;;;;;;4882510;29;20044;-23
2021/01/19 08:55:46;;;;;;;11.27;5.75;;;;;;;;;;4899647;29;20092;-24
2021/01/19 08:58:19;;;;;;;7.10;4.15;;;;;;;;;;4899172;29;20028;-23
2021/01/19 09:00:44;;;;;;;8.48;4.00;;;;;;;;;;4881675;29;20554;-23
2021/01/19 09:03:12;;;;;;;7.70;3.92;;;;;;;;;;4882124;29;20040;-22
2021/01/19 09:05:38;;;;;;;6.68;4.25;;;;;;;;;;4899190;29;20373;-23
2021/01/19 09:08:16;;;;;;;10.05;5.93;;;;;;;;;;4899399;29;20040;-22
2021/01/19 09:10:42;;;;;;;11.05;6.93;;;;;;;;;;4899156;29;20032;-23
2021/01/19 09:13:08;;;;;;;19.65;7.40;;;;;;;;;;4881958;29;20637;-23
2021/01/19 09:15:38;;;;;;;13.40;7.50;;;;;;;;;;4882254;29;20091;-24
2021/01/19 09:18:03;;;;;;;12.23;5.45;;;;;;;;;;4898996;29;20035;-23
2021/01/19 09:20:28;;;;;;;8.90;6.22;;;;;;;;;;4898390;29;20032;-23
2021/01/19 09:23:05;;;;;;;12.68;6.90;;;;;;;;;;4881979;29;20036;-22
2021/01/19 09:25:30;;;;;;;8.95;6.78;;;;;;;;;;4542581;29;10000249;-25
2021/01/19 09:28:02;;;;;;;9.10;5.28;;;;;;;;;;4894819;29;20036;-24
2021/01/19 09:30:34;;;;;;;11.15;7.00;;;;;;;;;;4878066;29;20131;-25
2021/01/19 09:33:04;;;;;;;7.53;5.35;;;;;;;;;;4866253;29;20041;-25
2021/01/19 09:35:30;;;;;;;7.07;4.65;;;;;;;;;;4895386;29;20060;-25
2021/01/19 09:37:56;;;;;;;8.52;5.45;;;;;;;;;;4894404;29;20459;-25
2021/01/19 09:40:28;;;;;;;8.93;5.78;;;;;;;;;;4894890;29;20160;-25
2021/01/19 09:42:54;;;;;;;8.45;3.33;;;;;;;;;;4895174;29;20190;-23
2021/01/19 09:45:20;;;;;;;9.15;4.80;;;;;;;;;;4895020;29;20585;-23
2021/01/19 09:47:45;;;;;;;10.25;4.63;;;;;;;;;;4894621;29;20032;-23
2021/01/19 09:50:11;;;;;;;8.23;5.22;;;;;;;;;;4877281;29;20084;-23
2021/01/19 09:52:36;;;;;;;7.78;4.50;;;;;;;;;;4877298;29;20488;-23
2021/01/19 09:55:23;;;;;;;7.63;4.32;;;;;;;;;;4894398;29;20096;-24
2021/01/19 09:57:59;;;;;;;8.82;4.50;;;;;;;;;;4894457;29;20088;-23
2021/01/19 10:00:31;;;;;;;7.68;4.07;;;;;;;;;;4894850;29;20036;-24
2021/01/19 10:03:07;;;;;;;12.27;5.17;;;;;;;;;;4894060;29;20040;-23
2021/01/19 10:05:32;;;;;;;7.40;5.35;;;;;;;;;;4871605;29;20028;-22
2021/01/19 10:07:58;;;;;;;11.55;5.45;;;;;;;;;;4894442;29;20080;-21
2021/01/19 10:10:23;;;;;;;11.25;5.35;;;;;;;;;;4890904;29;20088;-22
2021/01/19 10:12:49;;;;;;;9.30;5.78;;;;;;;;;;4892010;29;20498;-23
2021/01/19 10:15:15;;;;;;;7.55;5.47;;;;;;;;;;4894842;29;20120;-24
2021/01/19 10:17:40;;;;;;;8.63;4.97;;;;;;;;;;4894706;29;20032;-25
2021/01/19 10:20:06;;;;;;;11.05;6.28;;;;;;;;;;4893227;29;20032;-22
2021/01/19 10:22:32;;;;;;;13.52;6.70;;;;;;;;;;4894960;29;20040;-23
2021/01/19 10:24:58;;;;;;;12.05;5.57;;;;;;;;;;4877253;29;20040;-22
2021/01/19 10:27:24;;;;;;;8.00;5.32;;;;;;;;;;4893952;29;20070;-22
2021/01/19 10:29:50;;;;;;;8.80;5.63;;;;;;;;;;4894033;29;20036;-22
2021/01/19 10:32:16;;;;;;;11.98;6.40;;;;;;;;;;4894156;29;20044;-21
2021/01/19 10:34:45;;;;;;;11.68;5.35;;;;;;;;;;4877164;29;20045;-22
2021/01/19 10:37:11;;;;;;;10.80;5.68;;;;;;;;;;4894178;29;20044;-21
2021/01/19 10:39:45;;;;;;;11.05;6.63;;;;;;;;;;4893852;29;20624;-23
2021/01/19 10:42:22;;;;;;;6.53;4.53;;;;;;;;;;4894607;29;20123;-22
2021/01/19 10:45:13;;;;;;;6.22;3.92;;;;;;;;;;4894303;29;20029;-22
2021/01/19 10:47:40;;;;;;;10.15;5.05;;;;;;;;;;4874275;29;20048;-22
2021/01/19 10:50:29;;;;;;;9.00;5.00;;;;;;;;;;4877433;29;20498;-22
2021/01/19 10:53:01;;;;;;;10.80;5.10;;;;;;;;;;4886342;29;20091;-21
2021/01/19 10:55:27;;;;;;;6.53;3.78;;;;;;;;;;4876566;29;20040;-22
2021/01/19 10:57:56;;;;;;;7.80;4.05;;;;;;;;;;4894292;29;20329;-21
2021/01/19 11:00:22;;;;;;;8.60;4.50;;;;;;;;;;4894089;29;20100;-22
2021/01/19 11:02:47;;;;;;;9.57;4.43;;;;;;;;;;4893429;29;20465;-22
2021/01/19 11:05:13;;;;;;;6.50;4.20;;;;;;;;;;4894167;29;20036;-23
2021/01/19 11:07:42;;;;;;;8.85;4.70;;;;;;;;;;4893872;29;20028;-22
2021/01/19 11:10:07;;;;;;;6.88;3.95;;;;;;;;;;4894008;29;20033;-22
2021/01/19 11:12:33;;;;;;;8.38;4.60;;;;;;;;;;4894311;29;20052;-22
2021/01/19 11:14:58;;;;;;;7.82;4.30;;;;;;;;;;4876600;29;20496;-22
2021/01/19 11:17:25;;;;;;;6.07;3.88;;;;;;;;;;4892394;29;20032;-23
2021/01/19 11:19:51;;;;;;;6.93;4.60;;;;;;;;;;4893409;29;20519;-33
2021/01/19 11:22:16;;;;;;;6.93;4.25;;;;;;;;;;4893795;29;20037;-22
2021/01/19 11:24:42;;;;;;;7.45;4.80;;;;;;;;;;4895993;29;20044;-22
2021/01/19 11:27:07;;;;;;;7.55;4.53;;;;;;;;;;4897478;29;20060;-22
2021/01/19 11:29:32;;;;;;;6.85;4.35;;;;;;;;;;4897816;29;20125;-21
2021/01/19 11:31:59;;;;;;;6.40;4.38;;;;;;;;;;4897795;29;20068;-22
2021/01/19 11:34:24;;;;;;;7.70;4.20;;;;;;;;;;4897343;29;20059;-22
2021/01/19 11:36:49;;;;;;;9.80;4.72;;;;;;;;;;4897360;29;20033;-22
2021/01/19 11:39:15;;;;;;;10.05;4.55;;;;;;;;;;4895838;29;20149;-22
2021/01/19 11:41:42;;;;;;;9.30;5.60;;;;;;;;;;4897229;29;20049;-21
2021/01/19 11:44:07;;;;;;;8.45;4.60;;;;;;;;;;4897247;29;20068;-22
2021/01/19 11:46:33;;;;;;;7.32;5.03;;;;;;;;;;4897476;29;20029;-22
2021/01/19 11:49:00;;;;;;;9.65;4.50;;;;;;;;;;4897241;29;20040;-23
2021/01/19 11:51:26;;;;;;;8.40;5.00;;;;;;;;;;4880024;29;20468;-22
2021/01/19 11:53:53;;;;;;;9.40;4.95;;;;;;;;;;4897303;29;20045;-23
2021/01/19 11:56:19;;;;;;;7.10;4.00;;;;;;;;;;4873975;29;20017;-21
2021/01/19 11:58:45;;;;;;;8.20;4.53;;;;;;;;;;4897256;29;20574;-22
2021/01/19 12:01:20;;;;;;;9.38;4.57;;;;;;;;;;4896765;29;20460;-21
2021/01/19 12:03:46;;;;;;;7.32;4.13;;;;;;;;;;4896551;29;20043;-22
2021/01/19 12:06:11;;;;;;;7.47;4.60;;;;;;;;;;4896745;29;20036;-22
2021/01/19 12:08:37;;;;;;;7.40;3.95;;;;;;;;;;4896666;29;20037;-22
2021/01/19 12:11:02;;;;;;;12.00;5.68;;;;;;;;;;4879682;29;20468;-22
2021/01/19 12:13:28;;;;;;;14.38;6.38;;;;;;;;;;4879382;29;20040;-22
2021/01/19 12:15:53;;;;;;;9.88;6.25;;;;;;;;;;4864037;29;20392;-22
2021/01/19 12:18:19;;;;;;;10.73;5.53;;;;;;;;;;4896770;29;20032;-22
2021/01/19 12:20:44;;;;;;;9.80;5.93;;;;;;;;;;4879675;29;20067;-22
2021/01/19 12:23:10;;;;;;;13.93;6.25;;;;;;;;;;4879782;29;20135;-22
2021/01/19 12:25:35;;;;;;;12.25;5.60;;;;;;;;;;4895822;29;20029;-22
2021/01/19 12:28:02;;;;;;;7.50;4.10;;;;;;;;;;4896973;29;20104;-22
2021/01/19 12:30:28;;;;;;;10.63;5.00;;;;;;;;;;4896298;29;20055;-22
2021/01/19 12:32:54;;;;;;;10.02;5.20;;;;;;;;;;4896327;29;20272;-22
2021/01/19 12:35:19;;;;;;;12.35;5.47;;;;;;;;;;4895527;29;20185;-22
2021/01/19 12:37:45;;;;;;;11.57;5.65;;;;;;;;;;4896076;29;20032;-21
2021/01/19 12:40:11;;;;;;;14.48;6.78;;;;;;;;;;4896504;29;20048;-22
2021/01/19 12:42:36;;;;;;;12.40;7.13;;;;;;;;;;4879625;29;20041;-23
2021/01/19 12:45:02;;;;;;;9.32;6.22;;;;;;;;;;4897043;29;20093;-22
2021/01/19 12:47:28;;;;;;;11.43;6.15;;;;;;;;;;4896488;29;20384;-22
2021/01/19 12:49:53;;;;;;;11.77;6.22;;;;;;;;;;4895864;29;20024;-22
2021/01/19 12:52:19;;;;;;;8.82;4.78;;;;;;;;;;4896449;29;20440;-22
2021/01/19 12:54:44;;;;;;;11.90;6.22;;;;;;;;;;4896023;29;20041;-22
2021/01/19 12:57:13;;;;;;;10.65;5.63;;;;;;;;;;4865811;29;20044;-22
2021/01/19 12:59:39;;;;;;;9.93;5.03;;;;;;;;;;4877185;29;20041;-22
2021/01/19 13:02:05;;;;;;;9.10;4.05;;;;;;;;;;4877080;29;20120;-23
2021/01/19 13:04:31;;;;;;;14.70;5.15;;;;;;;;;;4877373;29;20033;-22
2021/01/19 13:06:56;;;;;;;13.43;6.72;;;;;;;;;;4877406;29;20044;-22
2021/01/19 13:09:22;;;;;;;15.00;6.07;;;;;;;;;;4877274;29;20025;-22
2021/01/19 13:11:47;;;;;;;11.82;6.90;;;;;;;;;;4875645;29;20037;-22
2021/01/19 13:14:13;;;;;;;12.20;6.35;;;;;;;;;;4876565;29;20506;-22
2021/01/19 13:16:38;;;;;;;13.85;6.07;;;;;;;;;;4876834;29;20036;-23
2021/01/19 13:19:04;;;;;;;12.30;6.38;;;;;;;;;;4877085;29;20068;-22
2021/01/19 13:21:29;;;;;;;8.90;5.68;;;;;;;;;;4876610;29;20145;-22
2021/01/19 13:23:54;;;;;;;15.20;5.97;;;;;;;;;;4876796;29;20037;-23
2021/01/19 13:26:20;;;;;;;11.98;5.72;;;;;;;;;;4875283;29;20099;-22
2021/01/19 13:28:45;;;;;;;11.13;5.57;;;;;;;;;;4876935;29;20104;-22
2021/01/19 13:31:11;;;;;;;9.30;5.65;;;;;;;;;;4876859;29;20049;-23
2021/01/19 13:33:36;;;;;;;9.50;5.65;;;;;;;;;;4877021;29;20096;-22
2021/01/19 13:36:02;;;;;;;16.17;7.15;;;;;;;;;;4877078;29;20036;-23
2021/01/19 13:38:27;;;;;;;11.30;6.35;;;;;;;;;;4876234;29;20403;-22
2021/01/19 13:40:53;;;;;;;14.95;6.68;;;;;;;;;;4876779;29;20036;-23
2021/01/19 13:43:18;;;;;;;11.93;5.85;;;;;;;;;;4876466;29;20031;-22
2021/01/19 13:45:44;;;;;;;10.85;5.72;;;;;;;;;;4876462;29;20629;-23
2021/01/19 13:48:10;;;;;;;8.48;5.10;;;;;;;;;;4876390;29;20077;-22
2021/01/19 13:50:35;;;;;;;17.13;6.28;;;;;;;;;;4859280;29;20089;-23
2021/01/19 13:53:01;;;;;;;12.30;5.93;;;;;;;;;;4876569;29;20181;-23
2021/01/19 13:55:26;;;;;;;15.52;6.10;;;;;;;;;;4876383;29;20052;-23
2021/01/19 13:57:51;;;;;;;8.70;5.45;;;;;;;;;;4878038;29;20036;-24
2021/01/19 14:00:17;;;;;;;12.13;6.75;;;;;;;;;;4894548;29;20056;-23
2021/01/19 14:02:43;;;;;;;10.02;5.88;;;;;;;;;;4894041;29;20055;-23
2021/01/19 14:05:08;;;;;;;12.68;7.75;;;;;;;;;;4894698;29;20531;-24
2021/01/19 14:07:34;;;;;;;11.50;5.28;;;;;;;;;;4894040;29;20476;-24
2021/01/19 14:09:59;;;;;;;8.90;6.15;;;;;;;;;;4877719;29;20040;-24
2021/01/19 14:12:25;;;;;;;12.85;5.85;;;;;;;;;;4894435;29;20033;-23
2021/01/19 14:14:50;;;;;;;12.50;6.07;;;;;;;;;;4894122;29;20048;-23
2021/01/19 14:17:16;;;;;;;13.02;5.57;;;;;;;;;;4894457;29;20021;-23
2021/01/19 14:19:41;;;;;;;12.10;5.85;;;;;;;;;;4892915;29;20045;-23
2021/01/19 14:22:07;;;;;;;10.98;6.55;;;;;;;;;;4894433;29;20035;-24
2021/01/19 14:24:32;;;;;;;10.55;6.07;;;;;;;;;;4893982;29;20036;-22
2021/01/19 14:26:58;;;;;;;13.18;6.38;;;;;;;;;;4893613;29;20123;-23
2021/01/19 14:29:23;;;;;;;10.95;6.82;;;;;;;;;;4894199;29;20024;-24
2021/01/19 14:31:50;;;;;;;12.18;7.13;;;;;;;;;;4894310;29;20037;-24
2021/01/19 14:34:19;;;;;;;12.23;6.82;;;;;;;;;;4894315;29;20104;-23
2021/01/19 14:36:45;;;;;;;12.40;6.78;;;;;;;;;;4893781;29;20035;-24